Time;durP1;ratioP1;P1;durP2;ratioP2;P2;SDS_P1;SDS_P2;PMS_P1;PMS_P2;Temp;Humidity;BMP_temperature;BMP_pressure;BME280_temperature;BME280_humidity;BME280_pressure;Samples;Min_cycle;Max_cycle;Signal;HPM_P1;HPM_P2
2023/04/27 00:00:51;;;;;;;13.75;7.63;;;5.20;99.90;;;;;;5102172;27;20091;-57
2023/04/27 00:03:17;;;;;;;13.25;7.28;;;5.10;99.90;;;;;;5105050;27;20046;-57
2023/04/27 00:05:42;;;;;;;8.35;6.72;;;5.00;99.90;;;;;;5110000;27;20050;-57
2023/04/27 00:08:08;;;;;;;12.23;7.65;;;4.90;99.90;;;;;;5103087;27;20043;-57
2023/04/27 00:10:34;;;;;;;13.18;6.85;;;5.00;99.90;;;;;;5103746;27;20031;-57
2023/04/27 00:13:00;;;;;;;9.55;6.88;;;4.90;99.90;;;;;;5106658;27;20050;-57
2023/04/27 00:15:26;;;;;;;11.88;6.85;;;4.90;99.90;;;;;;5104503;27;20700;-56
2023/04/27 00:17:52;;;;;;;12.27;6.63;;;4.90;99.90;;;;;;5103871;27;20040;-57
2023/04/27 00:20:18;;;;;;;12.65;6.57;;;4.80;99.90;;;;;;5101797;27;20889;-58
2023/04/27 00:22:44;;;;;;;12.10;6.85;;;4.80;99.90;;;;;;5107690;27;20356;-57
2023/04/27 00:25:10;;;;;;;12.60;7.15;;;4.80;99.90;;;;;;5100668;27;20031;-57
2023/04/27 00:27:36;;;;;;;11.73;6.82;;;4.80;99.90;;;;;;5106530;27;20400;-57
2023/04/27 00:30:02;;;;;;;11.80;6.90;;;4.70;99.90;;;;;;5105298;27;20515;-55
2023/04/27 00:32:28;;;;;;;13.95;7.28;;;4.70;99.90;;;;;;5104666;27;20073;-56
2023/04/27 00:34:53;;;;;;;13.52;7.30;;;4.70;99.90;;;;;;5103176;27;20043;-57
2023/04/27 00:37:19;;;;;;;11.18;7.30;;;4.70;99.90;;;;;;5105680;27;20046;-57
2023/04/27 00:39:44;;;;;;;12.65;7.00;;;4.60;99.90;;;;;;5105394;27;20031;-57
2023/04/27 00:42:12;;;;;;;13.25;7.47;;;4.60;99.90;;;;;;5103906;27;20178;-57
2023/04/27 00:44:37;;;;;;;11.52;7.53;;;4.60;99.90;;;;;;5101030;27;20031;-57
2023/04/27 00:47:03;;;;;;;11.98;6.85;;;4.60;99.90;;;;;;5099862;27;20032;-57
2023/04/27 00:49:30;;;;;;;11.10;7.47;;;4.50;99.90;;;;;;5107603;27;20112;-57
2023/04/27 00:51:55;;;;;;;12.55;7.30;;;4.40;99.90;;;;;;5102939;27;20058;-58
2023/04/27 00:54:22;;;;;;;12.45;7.90;;;4.20;99.90;;;;;;5102466;27;20190;-57
2023/04/27 00:56:49;;;;;;;11.05;6.90;;;4.20;99.90;;;;;;5105597;27;20142;-57
2023/04/27 00:59:15;;;;;;;12.77;7.78;;;4.20;99.90;;;;;;5103217;27;20038;-57
2023/04/27 01:01:41;;;;;;;15.10;8.30;;;4.00;99.90;;;;;;5105037;27;20027;-57
2023/04/27 01:04:07;;;;;;;12.30;7.22;;;4.20;99.90;;;;;;5103628;27;20045;-57
2023/04/27 01:06:32;;;;;;;15.25;8.30;;;4.30;99.90;;;;;;5103560;27;20036;-57
2023/04/27 01:08:58;;;;;;;14.70;7.90;;;4.30;99.90;;;;;;5104411;27;20394;-57
2023/04/27 01:11:23;;;;;;;11.52;7.85;;;4.20;99.90;;;;;;5105300;27;20323;-57
2023/04/27 01:13:49;;;;;;;13.95;7.28;;;4.20;99.90;;;;;;5104380;27;20059;-58
2023/04/27 01:16:17;;;;;;;12.63;7.57;;;4.20;99.90;;;;;;5102303;27;20035;-57
2023/04/27 01:18:43;;;;;;;13.45;7.65;;;4.20;99.90;;;;;;5107203;27;20520;-57
2023/04/27 01:21:09;;;;;;;12.95;8.15;;;4.20;99.90;;;;;;5103743;27;20551;-57
2023/04/27 01:23:34;;;;;;;12.43;7.80;;;4.30;99.90;;;;;;5103807;27;20130;-57
2023/04/27 01:26:00;;;;;;;10.32;6.85;;;4.30;99.90;;;;;;5106478;27;20035;-57
2023/04/27 01:28:26;;;;;;;13.40;7.80;;;4.30;99.90;;;;;;5099275;27;20035;-57
2023/04/27 01:30:51;;;;;;;12.88;7.53;;;4.30;99.90;;;;;;5105320;27;20683;-57
2023/04/27 01:33:17;;;;;;;14.80;7.82;;;4.20;99.90;;;;;;5106770;27;20088;-57
2023/04/27 01:35:43;;;;;;;11.38;7.45;;;4.20;99.90;;;;;;5103524;27;20139;-57
2023/04/27 01:38:08;;;;;;;12.68;7.10;;;4.30;99.90;;;;;;5104903;27;20035;-57
2023/04/27 01:40:34;;;;;;;16.38;7.65;;;4.20;99.90;;;;;;5101830;27;20480;-57
2023/04/27 01:42:59;;;;;;;13.63;8.40;;;4.30;99.90;;;;;;5099967;27;20039;-57
2023/04/27 01:45:25;;;;;;;11.52;8.25;;;4.30;99.90;;;;;;5087668;27;20996;-57
2023/04/27 01:47:51;;;;;;;14.48;7.55;;;4.30;99.90;;;;;;5085308;27;20483;-57
2023/04/27 01:50:17;;;;;;;14.93;8.70;;;4.40;99.90;;;;;;5101762;27;20039;-57
2023/04/27 01:52:42;;;;;;;13.02;8.02;;;4.40;99.90;;;;;;5099523;27;20555;-57
2023/04/27 01:55:08;;;;;;;10.95;7.43;;;4.30;99.90;;;;;;5104015;27;20055;-57
2023/04/27 01:57:34;;;;;;;15.13;7.60;;;4.40;99.90;;;;;;5103845;28;20050;-57
2023/04/27 01:59:59;;;;;;;10.45;7.70;;;4.50;99.90;;;;;;5098403;28;20047;-57
2023/04/27 02:02:25;;;;;;;11.98;7.07;;;4.40;99.90;;;;;;5105717;28;20696;-57
2023/04/27 02:04:51;;;;;;;13.40;7.72;;;4.30;99.90;;;;;;5102663;28;20035;-57
2023/04/27 02:07:16;;;;;;;12.95;8.23;;;4.20;99.90;;;;;;5104772;28;20178;-57
2023/04/27 02:09:42;;;;;;;14.18;7.63;;;4.10;99.90;;;;;;5103543;27;20042;-57
2023/04/27 02:12:08;;;;;;;13.82;8.00;;;4.10;99.90;;;;;;5105506;28;20383;-56
2023/04/27 02:14:33;;;;;;;12.38;7.50;;;4.10;99.90;;;;;;5107035;28;20034;-57
2023/04/27 02:16:59;;;;;;;13.95;8.00;;;4.10;99.90;;;;;;5104944;28;20043;-57
2023/04/27 02:19:25;;;;;;;12.35;7.53;;;4.20;99.90;;;;;;5104883;28;20514;-57
2023/04/27 02:21:51;;;;;;;13.02;7.90;;;4.30;99.90;;;;;;5102211;28;20114;-57
2023/04/27 02:24:17;;;;;;;14.35;8.05;;;4.30;99.90;;;;;;5103461;27;20039;-57
2023/04/27 02:26:43;;;;;;;13.90;8.15;;;4.40;99.90;;;;;;5107582;27;20031;-57
2023/04/27 02:29:08;;;;;;;13.63;7.95;;;4.40;99.90;;;;;;5106946;27;20030;-57
2023/04/27 02:31:34;;;;;;;12.18;8.55;;;4.40;99.90;;;;;;5106563;27;20043;-57
2023/04/27 02:33:59;;;;;;;17.50;8.30;;;4.20;99.90;;;;;;5107622;27;20040;-56
2023/04/27 02:36:25;;;;;;;13.93;7.82;;;4.00;99.90;;;;;;5107464;27;20032;-56
2023/04/27 02:38:50;;;;;;;14.80;8.25;;;4.00;99.90;;;;;;5090762;27;20068;-57
2023/04/27 02:41:16;;;;;;;13.02;7.65;;;3.90;99.90;;;;;;5104802;27;20032;-57
2023/04/27 02:43:41;;;;;;;12.93;7.35;;;3.90;99.90;;;;;;5109768;27;20470;-57
2023/04/27 02:46:07;;;;;;;12.93;7.75;;;3.90;99.90;;;;;;5110684;27;20042;-56
2023/04/27 02:48:33;;;;;;;15.57;7.95;;;3.80;99.90;;;;;;5108289;27;20120;-57
2023/04/27 02:50:58;;;;;;;13.88;8.10;;;3.90;99.90;;;;;;5097961;27;20511;-57
2023/04/27 02:53:24;;;;;;;15.38;8.93;;;3.80;99.90;;;;;;5101354;27;20039;-57
2023/04/27 02:55:50;;;;;;;14.75;8.02;;;3.80;99.90;;;;;;5105862;27;20098;-57
2023/04/27 02:58:16;;;;;;;15.50;8.48;;;3.70;99.90;;;;;;5102704;27;20536;-57
2023/04/27 03:00:42;;;;;;;13.98;8.48;;;3.70;99.90;;;;;;5107027;27;20717;-56
2023/04/27 03:03:08;;;;;;;20.52;8.35;;;3.70;99.90;;;;;;5108425;27;20540;-57
2023/04/27 03:05:35;;;;;;;19.20;9.20;;;3.70;99.90;;;;;;5108326;27;20119;-57
2023/04/27 03:08:00;;;;;;;12.38;8.20;;;3.90;99.90;;;;;;5109232;27;20499;-57
2023/04/27 03:10:26;;;;;;;18.75;8.60;;;3.90;99.90;;;;;;5108299;27;20103;-57
2023/04/27 03:12:51;;;;;;;15.25;8.55;;;3.60;99.90;;;;;;5103713;27;20059;-57
2023/04/27 03:15:17;;;;;;;12.52;8.52;;;3.60;99.90;;;;;;5104236;27;20084;-57
2023/04/27 03:17:43;;;;;;;18.58;9.07;;;3.60;99.90;;;;;;5108317;27;20039;-57
2023/04/27 03:20:09;;;;;;;21.33;11.02;;;3.80;99.90;;;;;;5103688;27;20655;-57
2023/04/27 03:22:35;;;;;;;17.75;10.55;;;3.90;99.90;;;;;;5107887;27;20024;-57
2023/04/27 03:25:02;;;;;;;16.00;9.75;;;3.90;99.90;;;;;;5106138;27;20039;-57
2023/04/27 03:27:27;;;;;;;19.48;10.18;;;4.00;99.90;;;;;;5102176;27;20134;-57
2023/04/27 03:29:53;;;;;;;16.95;9.55;;;4.00;99.90;;;;;;5106828;27;20147;-57
2023/04/27 03:32:19;;;;;;;14.98;9.65;;;4.10;99.90;;;;;;5110283;27;20032;-57
2023/04/27 03:34:44;;;;;;;16.23;9.70;;;4.00;99.90;;;;;;5108295;27;20043;-57
2023/04/27 03:37:10;;;;;;;22.83;10.25;;;3.90;99.90;;;;;;5100901;27;20043;-56
2023/04/27 03:39:35;;;;;;;17.02;9.95;;;3.80;99.90;;;;;;5109585;27;20039;-57
2023/04/27 03:42:01;;;;;;;20.25;11.18;;;3.70;99.90;;;;;;5085420;27;20130;-57
2023/04/27 03:44:27;;;;;;;17.88;10.80;;;3.50;99.90;;;;;;5107199;27;20028;-57
2023/04/27 03:46:52;;;;;;;18.98;10.30;;;3.50;99.90;;;;;;5110643;27;20057;-57
2023/04/27 03:49:18;;;;;;;15.63;9.50;;;3.60;99.90;;;;;;5104528;27;20431;-57
2023/04/27 03:51:43;;;;;;;18.65;10.63;;;3.50;99.90;;;;;;5106283;27;20027;-57
2023/04/27 03:54:09;;;;;;;15.80;9.48;;;3.70;99.90;;;;;;5095316;28;20023;-57
2023/04/27 03:56:35;;;;;;;20.98;9.65;;;3.80;99.90;;;;;;5104793;27;20492;-57
2023/04/27 03:59:02;;;;;;;19.80;10.25;;;3.70;99.90;;;;;;5103274;27;20105;-57
2023/04/27 04:01:29;;;;;;;17.77;8.90;;;3.50;99.90;;;;;;5110842;27;20039;-57
2023/04/27 04:03:55;;;;;;;18.30;10.38;;;3.50;99.90;;;;;;5107668;27;20069;-57
2023/04/27 04:06:20;;;;;;;17.10;10.18;;;3.40;99.90;;;;;;5106371;27;20078;-57
2023/04/27 04:08:46;;;;;;;13.93;9.02;;;3.30;99.90;;;;;;5104585;27;20095;-56
2023/04/27 04:11:11;;;;;;;14.63;9.23;;;3.30;99.90;;;;;;5108144;27;20119;-57
2023/04/27 04:13:37;;;;;;;18.85;9.90;;;3.30;99.90;;;;;;5086798;27;20046;-57
2023/04/27 04:16:08;;;;;;;16.75;8.98;;;3.20;99.90;;;;;;5107270;27;20024;-57
2023/04/27 04:18:35;;;;;;;15.35;9.13;;;3.20;99.90;;;;;;5110106;27;20035;-57
2023/04/27 04:21:01;;;;;;;18.23;10.13;;;3.30;99.90;;;;;;5105622;27;20605;-57
2023/04/27 04:23:27;;;;;;;17.50;8.98;;;3.20;99.90;;;;;;5096651;27;20576;-56
2023/04/27 04:25:55;;;;;;;18.40;9.52;;;3.20;99.90;;;;;;5103306;27;20050;-58
2023/04/27 04:28:21;;;;;;;18.10;9.15;;;3.20;99.90;;;;;;5109064;27;20051;-57
2023/04/27 04:30:47;;;;;;;16.77;9.55;;;3.10;99.90;;;;;;5107576;27;20023;-57
2023/04/27 04:33:12;;;;;;;16.63;9.98;;;3.20;99.90;;;;;;5107563;27;20470;-58
2023/04/27 04:35:38;;;;;;;17.67;9.60;;;3.20;99.90;;;;;;5107692;27;20418;-57
2023/04/27 04:38:04;;;;;;;15.85;8.93;;;3.20;99.90;;;;;;5106680;27;20040;-57
2023/04/27 04:40:30;;;;;;;14.43;9.10;;;3.10;99.90;;;;;;5107062;27;20050;-57
2023/04/27 04:42:56;;;;;;;17.38;8.95;;;3.10;99.90;;;;;;5085738;27;20031;-57
2023/04/27 04:45:21;;;;;;;19.15;9.25;;;3.20;99.90;;;;;;5097261;27;20134;-58
2023/04/27 04:47:48;;;;;;;16.60;9.50;;;3.20;99.90;;;;;;5103473;27;20125;-57
2023/04/27 04:50:14;;;;;;;14.73;9.68;;;3.20;99.90;;;;;;5096599;27;20038;-57
2023/04/27 04:52:40;;;;;;;15.13;9.15;;;3.20;99.90;;;;;;5106041;27;20111;-57
2023/04/27 04:55:06;;;;;;;21.83;10.90;;;3.20;99.90;;;;;;5107636;27;20244;-57
2023/04/27 04:57:31;;;;;;;20.05;10.15;;;3.30;99.90;;;;;;5093699;27;20040;-57
2023/04/27 04:59:57;;;;;;;17.38;9.75;;;3.30;99.90;;;;;;5101144;27;20332;-56
2023/04/27 05:02:22;;;;;;;18.02;9.68;;;3.30;99.90;;;;;;5104598;27;20368;-57
2023/04/27 05:04:50;;;;;;;18.02;9.75;;;3.30;99.90;;;;;;5100314;27;20039;-57
2023/04/27 05:07:16;;;;;;;15.30;9.90;;;3.30;99.90;;;;;;5106772;27;20024;-57
2023/04/27 05:09:42;;;;;;;16.63;9.50;;;3.30;99.90;;;;;;5107708;27;20481;-57
2023/04/27 05:12:08;;;;;;;16.85;8.85;;;3.40;99.90;;;;;;5107009;27;20038;-57
2023/04/27 05:14:34;;;;;;;19.88;9.82;;;3.50;99.90;;;;;;5110313;27;20390;-57
2023/04/27 05:16:59;;;;;;;17.02;9.93;;;3.50;99.90;;;;;;5105005;27;20410;-56
2023/04/27 05:19:28;;;;;;;17.08;9.98;;;3.70;99.90;;;;;;5105285;27;20171;-57
2023/04/27 05:21:53;;;;;;;24.67;9.55;;;3.80;99.90;;;;;;5105528;27;20043;-57
2023/04/27 05:24:19;;;;;;;17.17;9.27;;;4.00;99.90;;;;;;5106976;27;20381;-57
2023/04/27 05:26:44;;;;;;;19.42;10.40;;;4.10;99.90;;;;;;5108662;27;20438;-57
2023/04/27 05:29:10;;;;;;;24.30;10.05;;;4.40;99.90;;;;;;5096917;27;20035;-56
2023/04/27 05:31:36;;;;;;;23.08;10.43;;;4.60;99.90;;;;;;5084295;27;20936;-56
2023/04/27 05:34:01;;;;;;;18.77;10.45;;;4.70;99.90;;;;;;5110117;27;20031;-52
2023/04/27 05:36:27;;;;;;;22.08;10.18;;;4.90;99.90;;;;;;5110384;27;20038;-55
2023/04/27 05:38:53;;;;;;;23.50;9.52;;;5.00;99.90;;;;;;5105999;27;20464;-54
2023/04/27 05:41:19;;;;;;;18.85;10.65;;;5.20;99.90;;;;;;5107366;27;20032;-55
2023/04/27 05:43:45;;;;;;;24.25;10.63;;;5.40;99.90;;;;;;5098888;27;20043;-55
2023/04/27 05:46:14;;;;;;;18.55;10.15;;;5.70;99.90;;;;;;5104288;27;20035;-55
2023/04/27 05:48:40;;;;;;;19.58;10.75;;;5.70;99.90;;;;;;5108002;27;20390;-56
2023/04/27 05:51:06;;;;;;;20.48;11.38;;;6.00;99.90;;;;;;5107906;27;20027;-55
2023/04/27 05:53:32;;;;;;;19.08;10.18;;;6.20;99.90;;;;;;5106107;27;20059;-55
2023/04/27 05:55:59;;;;;;;17.80;9.80;;;6.80;99.90;;;;;;5105999;27;20445;-56
2023/04/27 05:58:25;;;;;;;19.80;10.13;;;6.60;99.90;;;;;;5104975;27;20075;-55
2023/04/27 06:00:52;;;;;;;19.83;10.25;;;6.50;99.90;;;;;;5100955;28;20031;-55
2023/04/27 06:03:18;;;;;;;21.63;9.93;;;6.60;99.90;;;;;;5095723;27;20101;-55
2023/04/27 06:05:43;;;;;;;14.65;9.30;;;6.80;99.90;;;;;;5108325;28;20798;-55
2023/04/27 06:08:10;;;;;;;20.42;8.98;;;6.80;99.90;;;;;;5107973;28;20135;-55
2023/04/27 06:10:36;;;;;;;20.13;8.77;;;6.80;99.90;;;;;;5108300;28;20209;-55
2023/04/27 06:13:02;;;;;;;16.25;8.60;;;6.80;99.90;;;;;;5086484;28;20135;-55
2023/04/27 06:15:28;;;;;;;14.32;8.43;;;6.80;99.90;;;;;;5105737;27;20055;-56
2023/04/27 06:17:53;;;;;;;15.95;8.07;;;7.00;99.90;;;;;;5103810;28;20674;-53
2023/04/27 06:20:19;;;;;;;12.82;7.63;;;6.90;99.90;;;;;;5106395;28;20030;-55
2023/04/27 06:22:45;;;;;;;13.00;7.38;;;6.90;99.90;;;;;;5104946;27;20085;-55
2023/04/27 06:25:11;;;;;;;14.82;7.75;;;7.10;99.90;;;;;;5086610;28;20534;-55
2023/04/27 06:27:36;;;;;;;12.98;6.90;;;7.40;99.90;;;;;;5083735;28;20036;-55
2023/04/27 06:30:03;;;;;;;14.00;6.88;;;7.40;99.90;;;;;;5103865;28;20040;-54
2023/04/27 06:32:29;;;;;;;11.98;6.47;;;7.30;99.90;;;;;;5106569;28;20052;-56
2023/04/27 06:34:55;;;;;;;10.00;6.60;;;7.40;99.90;;;;;;5103677;27;20556;-55
2023/04/27 06:37:21;;;;;;;15.68;6.63;;;7.60;99.90;;;;;;5087520;28;20046;-56
2023/04/27 06:39:46;;;;;;;12.90;6.53;;;7.80;99.90;;;;;;5099314;28;20850;-57
2023/04/27 06:42:12;;;;;;;13.45;5.82;;;8.00;99.90;;;;;;5098732;28;20023;-57
2023/04/27 06:44:38;;;;;;;13.55;5.55;;;7.90;99.90;;;;;;5105980;28;20113;-56
2023/04/27 06:47:04;;;;;;;11.73;5.53;;;8.00;99.90;;;;;;5105533;27;20047;-56
2023/04/27 06:49:29;;;;;;;8.88;5.35;;;8.10;99.90;;;;;;5104485;28;20043;-56
2023/04/27 06:51:55;;;;;;;13.13;5.65;;;8.10;99.90;;;;;;5111090;27;20042;-56
2023/04/27 06:54:21;;;;;;;11.77;5.32;;;8.00;99.90;;;;;;5107394;28;20035;-56
2023/04/27 06:56:46;;;;;;;9.80;5.53;;;8.10;99.90;;;;;;5098084;28;20032;-56
2023/04/27 06:59:12;;;;;;;11.90;5.45;;;8.20;99.90;;;;;;5106000;28;20031;-55
2023/04/27 07:01:37;;;;;;;12.40;5.75;;;8.20;99.90;;;;;;5104084;28;20502;-57
2023/04/27 07:04:04;;;;;;;16.08;5.63;;;8.40;99.90;;;;;;5096296;28;20100;-55
2023/04/27 07:06:30;;;;;;;11.68;5.30;;;8.50;99.90;;;;;;5101970;27;20514;-56
2023/04/27 07:08:56;;;;;;;12.02;5.20;;;8.70;99.90;;;;;;5102680;27;20031;-56
2023/04/27 07:11:22;;;;;;;8.50;5.28;;;8.80;99.90;;;;;;5104035;28;20130;-56
2023/04/27 07:13:48;;;;;;;9.85;5.07;;;8.90;99.90;;;;;;5108099;27;20470;-56
2023/04/27 07:16:15;;;;;;;13.38;6.75;;;8.80;99.90;;;;;;5097034;27;20024;-55
2023/04/27 07:18:41;;;;;;;12.50;5.65;;;8.80;99.90;;;;;;5088602;27;20064;-56
2023/04/27 07:21:06;;;;;;;11.82;5.90;;;8.90;99.90;;;;;;5112375;27;20494;-56
2023/04/27 07:23:32;;;;;;;10.13;5.50;;;9.00;99.90;;;;;;5108857;27;20043;-56
2023/04/27 07:25:58;;;;;;;11.90;5.00;;;9.20;99.90;;;;;;5094523;27;20430;-56
2023/04/27 07:28:23;;;;;;;10.90;4.70;;;9.00;99.90;;;;;;5109681;27;20040;-56
2023/04/27 07:30:49;;;;;;;9.65;5.32;;;9.00;99.90;;;;;;5112100;27;20143;-56
2023/04/27 07:33:15;;;;;;;10.52;4.68;;;9.00;99.90;;;;;;5109663;27;20042;-55
2023/04/27 07:35:41;;;;;;;12.55;5.13;;;8.80;99.90;;;;;;5108678;27;20096;-56
2023/04/27 07:38:07;;;;;;;8.32;4.68;;;8.90;99.90;;;;;;5106824;27;20031;-56
2023/04/27 07:40:33;;;;;;;10.77;4.95;;;9.00;99.90;;;;;;5091149;27;20178;-56
2023/04/27 07:42:59;;;;;;;18.90;11.02;;;9.10;99.90;;;;;;5100292;27;20508;-56
2023/04/27 07:45:31;;;;;;;8.35;5.00;;;9.30;99.90;;;;;;5108934;27;20053;-56
2023/04/27 07:47:59;;;;;;;9.65;4.68;;;9.50;99.90;;;;;;5110752;27;20122;-55
2023/04/27 07:50:25;;;;;;;10.10;5.25;;;9.60;99.90;;;;;;5110573;27;20036;-56
2023/04/27 07:52:53;;;;;;;8.77;4.53;;;9.70;99.90;;;;;;5109852;27;20456;-56
2023/04/27 07:55:20;;;;;;;10.43;4.53;;;9.50;99.90;;;;;;5108087;27;20035;-56
2023/04/27 07:57:46;;;;;;;11.50;3.97;;;9.30;99.90;;;;;;5107521;27;20520;-56
2023/04/27 08:00:12;;;;;;;11.02;4.40;;;9.40;99.90;;;;;;5105786;27;20050;-56
2023/04/27 08:02:37;;;;;;;8.55;4.75;;;9.50;99.90;;;;;;5109656;27;20035;-56
2023/04/27 08:05:03;;;;;;;11.38;4.75;;;9.70;99.90;;;;;;5096802;27;20352;-55
2023/04/27 08:07:29;;;;;;;10.15;4.38;;;9.90;99.90;;;;;;5094953;27;20035;-56
2023/04/27 08:09:54;;;;;;;9.50;4.28;;;10.00;99.90;;;;;;5105723;27;20059;-56
2023/04/27 08:12:20;;;;;;;9.23;4.38;;;9.80;99.90;;;;;;5105651;27;20346;-56
2023/04/27 08:14:46;;;;;;;9.38;4.18;;;9.60;99.90;;;;;;5110139;27;20031;-56
2023/04/27 08:17:11;;;;;;;11.45;4.53;;;9.90;99.90;;;;;;5102664;27;20040;-56
2023/04/27 08:19:37;;;;;;;13.25;4.55;;;10.10;99.90;;;;;;5108392;27;20058;-56
2023/04/27 08:22:03;;;;;;;7.28;3.53;;;10.50;99.90;;;;;;5109545;27;20055;-56
2023/04/27 08:24:28;;;;;;;7.22;4.00;;;10.30;99.90;;;;;;5099159;27;20641;-56
2023/04/27 08:26:54;;;;;;;7.18;4.88;;;10.00;99.90;;;;;;5105018;27;20369;-56
2023/04/27 08:29:20;;;;;;;9.23;5.03;;;10.20;99.90;;;;;;5074924;27;20039;-56
2023/04/27 08:31:46;;;;;;;9.48;4.20;;;10.40;99.90;;;;;;5100565;27;20036;-56
2023/04/27 08:34:11;;;;;;;9.27;3.95;;;10.30;99.90;;;;;;5068341;28;20558;-56
2023/04/27 08:36:37;;;;;;;8.13;4.40;;;10.40;99.90;;;;;;5098672;27;20101;-56
2023/04/27 08:39:07;;;;;;;12.18;5.07;;;10.30;99.90;;;;;;5106084;27;20047;-56
2023/04/27 08:41:33;;;;;;;12.73;4.53;;;10.40;99.90;;;;;;5100771;27;20108;-56
2023/04/27 08:43:59;;;;;;;10.13;4.70;;;10.70;99.90;;;;;;5107011;27;20128;-56
2023/04/27 08:46:27;;;;;;;10.32;5.32;;;10.70;99.90;;;;;;5109305;27;20028;-56
2023/04/27 08:48:53;;;;;;;12.50;4.75;;;10.80;99.90;;;;;;5111085;27;20043;-56
2023/04/27 08:51:20;;;;;;;9.50;4.97;;;11.10;99.90;;;;;;5099099;27;20503;-56
2023/04/27 08:53:51;;;;;;;13.13;5.03;;;11.10;99.90;;;;;;5101066;27;20130;-56
2023/04/27 08:56:18;;;;;;;8.70;4.97;;;11.30;99.90;;;;;;5101703;27;21738;-56
2023/04/27 08:58:43;;;;;;;8.60;4.70;;;11.10;99.90;;;;;;5108425;27;21852;-56
2023/04/27 09:01:09;;;;;;;10.25;4.30;;;11.20;99.90;;;;;;5105429;27;20082;-56
2023/04/27 09:03:37;;;;;;;9.32;5.10;;;11.40;99.90;;;;;;5102512;27;20028;-56
2023/04/27 09:06:03;;;;;;;10.80;5.03;;;11.40;99.90;;;;;;5104224;27;20042;-55
2023/04/27 09:08:49;;;;;;;14.32;4.85;;;11.70;99.90;;;;;;5098972;27;20134;-56
2023/04/27 09:11:28;;;;;;;7.22;3.92;;;11.70;99.90;;;;;;5096881;27;20039;-56
2023/04/27 09:13:54;;;;;;;8.48;4.40;;;11.70;99.90;;;;;;5101370;27;20039;-56
2023/04/27 09:16:24;;;;;;;12.27;5.88;;;11.30;99.90;;;;;;5107178;27;20043;-57
2023/04/27 09:18:49;;;;;;;11.30;5.05;;;11.30;99.90;;;;;;5112633;27;20047;-56
2023/04/27 09:21:47;;;;;;;7.93;3.58;;;11.40;99.90;;;;;;5095519;27;20840;-56
2023/04/27 09:24:13;;;;;;;5.85;3.40;;;11.30;99.90;;;;;;5072769;27;20541;-56
2023/04/27 09:26:39;;;;;;;10.73;4.47;;;11.40;99.90;;;;;;5107688;27;20065;-56
2023/04/27 09:29:05;;;;;;;7.75;3.72;;;11.70;99.90;;;;;;5122762;27;20118;-56
2023/04/27 09:31:34;;;;;;;7.85;4.10;;;11.60;99.90;;;;;;5123549;27;20043;-56
2023/04/27 09:34:00;;;;;;;12.13;3.90;;;11.50;99.90;;;;;;5119498;27;20043;-56
2023/04/27 09:36:26;;;;;;;8.10;3.65;;;11.70;99.90;;;;;;5094998;28;20487;-56
2023/04/27 09:38:52;;;;;;;6.63;2.92;;;11.70;99.90;;;;;;5113659;27;20026;-56
2023/04/27 09:41:18;;;;;;;6.05;2.75;;;11.50;99.90;;;;;;5095397;27;20417;-56
2023/04/27 09:43:46;;;;;;;11.57;3.40;;;11.60;99.90;;;;;;5109512;27;20046;-56
2023/04/27 09:46:12;;;;;;;5.70;2.90;;;11.40;99.90;;;;;;5101535;27;20051;-56
2023/04/27 09:48:39;;;;;;;4.72;2.42;;;11.90;99.90;;;;;;5105088;27;20087;-56
2023/04/27 09:51:05;;;;;;;6.35;2.80;;;11.80;99.90;;;;;;5112690;27;20704;-56
2023/04/27 09:53:48;;;;;;;5.38;3.20;;;11.90;99.90;;;;;;5118222;27;20031;-56
2023/04/27 09:56:51;;;;;;;8.52;3.58;;;11.80;99.90;;;;;;5108977;27;20034;-56
2023/04/27 09:59:36;;;;;;;10.38;2.75;;;11.60;99.90;;;;;;5097286;27;20043;-56
2023/04/27 10:02:04;;;;;;;4.68;2.80;;;11.90;99.90;;;;;;5103719;28;20403;-55
2023/04/27 10:05:08;;;;;;;6.45;2.80;;;11.70;99.90;;;;;;5104640;28;20506;-56
2023/04/27 10:07:34;;;;;;;8.07;3.55;;;11.90;99.90;;;;;;5111607;28;20062;-56
2023/04/27 10:10:03;;;;;;;6.35;3.03;;;12.20;99.90;;;;;;5110105;28;20147;-56
2023/04/27 10:12:35;;;;;;;4.80;3.05;;;12.40;99.90;;;;;;5101505;28;20307;-56
2023/04/27 10:15:14;;;;;;;5.50;3.50;;;12.30;99.90;;;;;;5111968;28;20039;-56
2023/04/27 10:17:48;;;;;;;6.45;3.53;;;11.90;99.60;;;;;;5108334;28;20039;-56
2023/04/27 10:20:13;;;;;;;5.05;2.67;;;11.70;99.90;;;;;;5101540;28;20339;-56
2023/04/27 10:22:52;;;;;;;6.03;3.00;;;11.60;97.50;;;;;;5116935;28;20070;-56
2023/04/27 10:25:29;;;;;;;5.47;3.10;;;12.00;99.90;;;;;;5107364;28;20118;-56
2023/04/27 10:27:58;;;;;;;6.97;3.30;;;11.70;92.90;;;;;;5118219;28;20522;-56
2023/04/27 10:30:26;;;;;;;6.60;2.95;;;12.10;99.90;;;;;;5113304;28;20031;-56
2023/04/27 10:32:54;;;;;;;5.32;3.15;;;12.20;99.90;;;;;;5116393;28;20032;-56
2023/04/27 10:35:21;;;;;;;6.72;3.10;;;12.50;99.90;;;;;;5108798;27;20403;-56
2023/04/27 10:37:47;;;;;;;6.95;3.20;;;12.30;95.70;;;;;;5102554;28;20039;-56
2023/04/27 10:40:13;;;;;;;5.78;3.28;;;12.30;99.90;;;;;;5110909;27;20039;-56
2023/04/27 10:42:40;;;;;;;9.07;3.05;;;12.50;98.40;;;;;;5102369;28;20031;-56
2023/04/27 10:45:06;;;;;;;7.82;3.17;;;12.00;99.90;;;;;;5109755;28;20035;-56
2023/04/27 10:47:57;;;;;;;7.25;3.15;;;12.30;99.50;;;;;;5111326;28;20028;-56
2023/04/27 10:50:24;;;;;;;7.57;3.53;;;12.20;99.90;;;;;;5115324;27;20043;-56
2023/04/27 10:52:49;;;;;;;9.70;3.70;;;12.40;98.60;;;;;;5108872;27;20032;-56
2023/04/27 10:55:20;;;;;;;8.30;3.50;;;12.30;94.00;;;;;;5098318;27;20144;-57
2023/04/27 10:57:50;;;;;;;7.25;3.38;;;12.30;99.90;;;;;;5106987;27;20054;-56
2023/04/27 11:00:30;;;;;;;7.93;3.60;;;12.40;96.50;;;;;;5121691;27;20063;-56
2023/04/27 11:03:08;;;;;;;6.70;3.40;;;12.40;95.20;;;;;;5098510;27;20483;-56
2023/04/27 11:05:35;;;;;;;9.82;5.20;;;12.50;95.90;;;;;;5102891;27;20035;-57
2023/04/27 11:08:20;;;;;;;12.57;7.85;;;12.30;93.70;;;;;;5105897;27;20405;-56
2023/04/27 11:10:49;;;;;;;8.48;3.20;;;12.50;97.50;;;;;;5100323;27;20032;-57
2023/04/27 11:13:17;;;;;;;8.20;2.92;;;12.60;98.50;;;;;;5120406;27;20035;-56
2023/04/27 11:15:47;;;;;;;6.05;3.25;;;12.50;98.00;;;;;;5097962;27;20123;-57
2023/04/27 11:18:14;;;;;;;5.22;3.33;;;12.40;95.00;;;;;;5110020;27;20095;-57
2023/04/27 11:20:40;;;;;;;9.75;3.22;;;12.30;96.60;;;;;;5109932;27;20069;-56
2023/04/27 11:23:06;;;;;;;5.55;3.13;;;12.40;91.20;;;;;;5115984;27;20047;-57
2023/04/27 11:25:32;;;;;;;5.35;3.42;;;12.40;94.50;;;;;;5105053;27;20460;-56
2023/04/27 11:27:57;;;;;;;8.05;3.53;;;12.60;90.90;;;;;;5111690;27;20042;-56
2023/04/27 11:30:24;;;;;;;5.78;3.40;;;12.20;93.20;;;;;;5111749;27;20107;-56
2023/04/27 11:32:50;;;;;;;5.68;3.13;;;12.30;93.00;;;;;;5111633;27;20042;-56
2023/04/27 11:35:17;;;;;;;5.35;3.50;;;12.20;88.20;;;;;;5114437;27;20083;-56
2023/04/27 11:37:43;;;;;;;5.45;3.17;;;12.30;89.80;;;;;;5109203;27;20035;-56
2023/04/27 11:40:10;;;;;;;6.63;3.10;;;12.10;89.00;;;;;;5108051;27;20052;-56
2023/04/27 11:42:35;;;;;;;7.70;3.83;;;12.10;91.40;;;;;;5109173;27;20458;-56
2023/04/27 11:45:06;;;;;;;4.10;3.17;;;12.40;92.30;;;;;;5109475;27;20039;-56
2023/04/27 11:47:34;;;;;;;6.45;3.92;;;12.50;93.10;;;;;;5105994;27;20047;-56
2023/04/27 11:50:03;;;;;;;5.13;3.05;;;12.30;87.50;;;;;;5104583;27;20114;-56
2023/04/27 11:52:33;;;;;;;5.70;3.30;;;12.50;86.40;;;;;;5104213;27;20343;-56
2023/04/27 11:55:01;;;;;;;8.38;3.53;;;12.50;84.50;;;;;;5116059;27;20031;-56
2023/04/27 11:57:34;;;;;;;7.80;3.72;;;12.40;86.30;;;;;;5103758;27;20036;-56
2023/04/27 12:00:07;;;;;;;6.47;2.97;;;12.60;83.90;;;;;;5099057;28;20086;-56
2023/04/27 12:02:33;;;;;;;4.88;2.90;;;12.50;86.70;;;;;;5117450;27;20039;-56
2023/04/27 12:04:59;;;;;;;7.63;3.00;;;12.60;87.40;;;;;;5117699;27;20259;-56
2023/04/27 12:07:24;;;;;;;6.13;3.20;;;12.60;73.60;;;;;;5112643;27;20037;-56
2023/04/27 12:09:50;;;;;;;10.63;3.13;;;12.70;75.80;;;;;;5105299;27;20089;-56
2023/04/27 12:12:17;;;;;;;7.47;3.50;;;12.80;82.50;;;;;;5110758;27;20039;-57
2023/04/27 12:14:44;;;;;;;11.10;6.03;;;13.20;79.50;;;;;;5107860;27;20101;-55
2023/04/27 12:17:09;;;;;;;7.28;4.05;;;13.00;69.10;;;;;;5099052;27;20039;-56
2023/04/27 12:19:36;;;;;;;8.73;3.28;;;12.80;65.90;;;;;;5118255;27;20114;-56
2023/04/27 12:22:01;;;;;;;6.53;3.05;;;13.00;71.00;;;;;;5120770;27;20058;-55
2023/04/27 12:24:27;;;;;;;8.13;3.35;;;13.40;77.80;;;;;;5116329;27;20032;-56
2023/04/27 12:26:52;;;;;;;6.90;3.35;;;13.20;65.20;;;;;;5103493;27;20028;-57
2023/04/27 12:29:19;;;;;;;5.93;3.33;;;13.20;71.90;;;;;;5108681;27;20394;-56
2023/04/27 12:31:44;;;;;;;6.53;3.83;;;13.20;66.80;;;;;;5113531;27;20118;-56
2023/04/27 12:34:10;;;;;;;5.53;3.33;;;13.30;71.90;;;;;;5113259;27;20158;-57
2023/04/27 12:36:36;;;;;;;6.72;3.60;;;13.50;74.60;;;;;;5120964;27;20035;-56
2023/04/27 12:39:12;;;;;;;6.75;3.30;;;13.20;67.50;;;;;;5122255;27;20455;-56
2023/04/27 12:41:38;;;;;;;8.38;3.78;;;13.10;68.20;;;;;;5109406;27;20110;-57
2023/04/27 12:44:03;;;;;;;7.18;4.05;;;13.10;65.10;;;;;;5103036;27;20115;-57